createdAt,value
2022-09-13T00:00:00.478Z,1.75
2022-09-13T00:02:27.012Z,1.80
2022-09-13T00:04:56.390Z,2.10
2022-09-13T00:07:25.139Z,2.00
2022-09-13T00:09:51.715Z,2.20
2022-09-13T00:12:18.306Z,2.00
2022-09-13T00:14:45.262Z,2.08
2022-09-13T00:17:11.806Z,1.80
2022-09-13T00:19:40.649Z,1.90
2022-09-13T00:22:07.290Z,2.10
2022-09-13T00:24:37.396Z,2.22
2022-09-13T00:27:06.446Z,2.03
2022-09-13T00:29:37.800Z,2.20
2022-09-13T00:32:07.277Z,2.17
2022-09-13T00:34:33.938Z,1.90
2022-09-13T00:37:00.705Z,1.70
2022-09-13T00:39:27.832Z,2.10
2022-09-13T00:41:59.213Z,2.17
2022-09-13T00:44:57.570Z,2.10
2022-09-13T00:47:41.415Z,2.10
2022-09-13T00:50:18.032Z,2.08
2022-09-13T00:52:50.844Z,2.35
2022-09-13T00:55:26.606Z,2.15
2022-09-13T00:57:59.045Z,1.98
2022-09-13T01:00:30.679Z,2.30
2022-09-13T01:03:09.138Z,2.00
2022-09-13T01:05:46.507Z,1.75
2022-09-13T01:08:22.476Z,1.95
2022-09-13T01:10:53.995Z,2.15
2022-09-13T01:13:28.897Z,2.00
2022-09-13T01:15:55.671Z,2.17
2022-09-13T01:18:24.583Z,2.40
2022-09-13T01:21:19.184Z,2.15
2022-09-13T01:24:04.505Z,2.08
2022-09-13T01:26:46.198Z,2.10
2022-09-13T01:29:39.000Z,2.58
2022-09-13T01:32:11.660Z,2.10
2022-09-13T01:35:23.934Z,2.20
2022-09-13T01:38:08.877Z,2.42
2022-09-13T01:40:44.381Z,2.47
2022-09-13T01:43:43.290Z,2.67
2022-09-13T01:46:25.001Z,2.17
2022-09-13T01:49:14.711Z,2.10
2022-09-13T01:51:54.056Z,2.30
2022-09-13T01:54:29.334Z,2.50
2022-09-13T01:57:08.957Z,2.30
2022-09-13T01:59:56.791Z,2.45
2022-09-13T02:02:28.722Z,2.00
2022-09-13T02:05:06.840Z,1.88
2022-09-13T02:07:40.903Z,2.03
2022-09-13T02:10:19.953Z,2.20
2022-09-13T02:12:49.591Z,2.58
2022-09-13T02:15:20.718Z,2.90
2022-09-13T02:17:54.990Z,3.20
2022-09-13T02:20:28.687Z,3.17
2022-09-13T02:23:03.189Z,3.80
2022-09-13T02:25:37.262Z,3.53
2022-09-13T02:28:09.284Z,3.28
2022-09-13T02:30:41.935Z,2.95
2022-09-13T02:33:16.535Z,2.77
2022-09-13T02:36:09.469Z,3.08
2022-09-13T02:39:11.730Z,3.20
2022-09-13T02:41:49.374Z,3.33
2022-09-13T02:44:24.751Z,2.95
2022-09-13T02:47:06.749Z,3.33
2022-09-13T02:49:51.628Z,2.78
2022-09-13T02:52:55.953Z,3.22
2022-09-13T02:55:33.020Z,3.22
2022-09-13T02:58:09.399Z,2.92
2022-09-13T03:00:39.142Z,3.33
2022-09-13T03:03:12.444Z,3.20
2022-09-13T03:05:41.334Z,3.28
2022-09-13T03:08:13.117Z,3.72
2022-09-13T03:10:52.174Z,3.60
2022-09-13T03:13:42.628Z,3.27
2022-09-13T03:16:15.684Z,3.00
2022-09-13T03:19:22.137Z,3.15
2022-09-13T03:22:07.437Z,2.90
2022-09-13T03:24:40.228Z,3.13
2022-09-13T03:27:25.419Z,2.90
2022-09-13T03:30:14.165Z,3.22
2022-09-13T03:32:55.268Z,2.97
2022-09-13T03:35:32.646Z,3.05
2022-09-13T03:38:17.604Z,2.60
2022-09-13T03:40:49.218Z,2.23
2022-09-13T03:43:35.879Z,3.05
2022-09-13T03:46:11.363Z,3.35
2022-09-13T03:48:40.852Z,2.88
2022-09-13T03:51:08.612Z,3.40
2022-09-13T03:53:42.979Z,2.87
2022-09-13T03:56:20.366Z,3.20
2022-09-13T03:58:48.573Z,3.30
2022-09-13T04:01:21.998Z,3.08
2022-09-13T04:03:51.413Z,3.60
2022-09-13T04:06:20.053Z,3.60
2022-09-13T04:08:51.707Z,3.65
2022-09-13T04:11:21.566Z,3.33
2022-09-13T04:13:48.241Z,3.45
2022-09-13T04:16:17.254Z,3.20
2022-09-13T04:18:46.471Z,3.43
2022-09-13T04:21:16.612Z,2.95
2022-09-13T04:23:45.451Z,3.47
2022-09-13T04:26:12.020Z,3.53
2022-09-13T04:28:38.563Z,3.45
2022-09-13T04:31:07.476Z,3.10
2022-09-13T04:33:37.323Z,2.83
2022-09-13T04:36:04.133Z,3.10
2022-09-13T04:38:32.003Z,3.08
2022-09-13T04:41:00.960Z,3.10
2022-09-13T04:43:29.875Z,3.27
2022-09-13T04:46:02.727Z,3.60
2022-09-13T04:48:29.619Z,3.72
2022-09-13T04:51:04.790Z,3.40
2022-09-13T04:53:32.254Z,3.33
2022-09-13T04:56:02.621Z,3.40
2022-09-13T04:58:29.687Z,3.53
2022-09-13T05:01:04.205Z,3.40
2022-09-13T05:03:36.421Z,3.75
2022-09-13T05:06:08.776Z,3.78
2022-09-13T05:08:36.207Z,3.33
2022-09-13T05:11:03.991Z,3.20
2022-09-13T05:13:31.492Z,3.20
2022-09-13T05:16:09.447Z,3.17
2022-09-13T05:18:38.377Z,3.00
2022-09-13T05:21:10.068Z,3.77
2022-09-13T05:23:36.723Z,4.68
2022-09-13T05:26:05.394Z,3.13
2022-09-13T05:28:36.057Z,3.60
2022-09-13T05:31:04.112Z,3.40
2022-09-13T05:33:33.471Z,3.40
2022-09-13T05:36:00.186Z,3.10
2022-09-13T05:38:29.372Z,2.80
2022-09-13T05:40:59.730Z,3.00
2022-09-13T05:43:28.993Z,2.92
2022-09-13T05:46:07.316Z,3.60
2022-09-13T05:48:35.806Z,3.33
2022-09-13T05:51:06.818Z,3.30
2022-09-13T05:53:38.093Z,3.17
2022-09-13T05:56:05.134Z,3.00
2022-09-13T05:58:31.715Z,3.27
2022-09-13T06:00:58.395Z,3.30
2022-09-13T06:03:25.409Z,3.67
2022-09-13T06:05:55.730Z,3.45
2022-09-13T06:08:23.896Z,3.33
2022-09-13T06:11:00.847Z,3.70
2022-09-13T06:13:28.463Z,3.80
2022-09-13T06:15:56.540Z,3.60
2022-09-13T06:18:24.957Z,3.88
2022-09-13T06:20:52.168Z,4.20
2022-09-13T06:23:23.582Z,4.03
2022-09-13T06:25:50.141Z,3.83
2022-09-13T06:28:17.015Z,3.53
2022-09-13T06:30:45.854Z,3.47
2022-09-13T06:33:12.417Z,3.80
2022-09-13T06:35:38.933Z,4.07
2022-09-13T06:38:12.952Z,4.32
2022-09-13T06:40:39.499Z,4.30
2022-09-13T06:43:09.071Z,4.35
2022-09-13T06:45:42.252Z,4.18
2022-09-13T06:48:08.811Z,4.30
2022-09-13T06:50:35.481Z,4.10
2022-09-13T06:53:02.125Z,4.00
2022-09-13T06:55:32.030Z,3.90
2022-09-13T06:58:01.225Z,4.32
2022-09-13T07:00:27.748Z,4.10
2022-09-13T07:02:58.818Z,4.10
2022-09-13T07:05:27.705Z,3.95
2022-09-13T07:07:56.557Z,4.70
2022-09-13T07:10:25.655Z,3.88
2022-09-13T07:12:52.178Z,4.03
2022-09-13T07:15:18.708Z,3.83
2022-09-13T07:17:47.798Z,3.50
2022-09-13T07:20:14.332Z,3.80
2022-09-13T07:22:40.823Z,4.05
2022-09-13T07:25:08.226Z,3.90
2022-09-13T07:27:36.975Z,3.67
2022-09-13T07:30:04.058Z,3.58
2022-09-13T07:32:32.905Z,3.75
2022-09-13T07:34:59.511Z,3.45
2022-09-13T07:37:27.173Z,3.50
2022-09-13T07:39:53.731Z,3.67
2022-09-13T07:42:22.922Z,3.88
2022-09-13T07:44:49.506Z,3.45
2022-09-13T07:47:16.248Z,3.97
2022-09-13T07:49:42.746Z,3.70
2022-09-13T07:52:14.054Z,3.38
2022-09-13T07:54:40.571Z,3.90
2022-09-13T07:57:10.517Z,3.55
2022-09-13T07:59:38.853Z,3.83
2022-09-13T08:02:05.569Z,3.97
2022-09-13T08:04:36.177Z,3.90
2022-09-13T08:07:05.484Z,4.15
2022-09-13T08:09:34.312Z,4.15
2022-09-13T08:12:05.603Z,4.53
2022-09-13T08:14:34.587Z,4.10
2022-09-13T08:17:04.409Z,4.40
2022-09-13T08:19:33.585Z,4.10
2022-09-13T08:22:04.995Z,4.03
2022-09-13T08:24:31.514Z,3.50
2022-09-13T08:27:03.169Z,3.33
2022-09-13T08:29:32.025Z,3.65
2022-09-13T08:32:01.049Z,3.15
2022-09-13T08:34:27.645Z,2.95
2022-09-13T08:36:56.727Z,3.08
2022-09-13T08:39:23.245Z,2.90
2022-09-13T08:42:03.178Z,2.97
2022-09-13T08:44:45.359Z,2.90
2022-09-13T08:47:27.254Z,2.72
2022-09-13T08:50:28.027Z,2.92
2022-09-13T08:53:07.400Z,2.63
2022-09-13T08:55:49.381Z,2.90
2022-09-13T08:58:33.392Z,2.83
2022-09-13T09:01:29.042Z,2.50
2022-09-13T09:04:20.615Z,2.55
2022-09-13T09:06:49.707Z,2.60
2022-09-13T09:09:20.564Z,2.70
2022-09-13T09:12:00.109Z,2.60
2022-09-13T09:14:35.966Z,2.35
2022-09-13T09:17:06.882Z,2.67
2022-09-13T09:19:38.244Z,2.73
2022-09-13T09:22:11.919Z,2.50
2022-09-13T09:24:40.355Z,2.97
2022-09-13T09:27:17.236Z,2.70
2022-09-13T09:29:46.313Z,2.70
2022-09-13T09:32:36.202Z,2.50
2022-09-13T09:35:31.363Z,2.55
2022-09-13T09:38:10.475Z,2.65
2022-09-13T09:40:39.871Z,2.60
2022-09-13T09:43:20.227Z,2.95
2022-09-13T09:45:50.933Z,2.20
2022-09-13T09:48:25.253Z,2.50
2022-09-13T09:50:55.503Z,2.60
2022-09-13T09:53:32.534Z,2.85
2022-09-13T09:56:31.288Z,2.60
2022-09-13T09:59:00.027Z,2.40
2022-09-13T10:01:30.464Z,2.22
2022-09-13T10:04:06.189Z,2.50
2022-09-13T10:06:32.904Z,2.45
2022-09-13T10:09:17.999Z,2.30
2022-09-13T10:11:54.579Z,2.00
2022-09-13T10:14:45.854Z,2.13
2022-09-13T10:17:15.211Z,1.90
2022-09-13T10:19:53.037Z,1.85
2022-09-13T10:22:20.029Z,2.45
2022-09-13T10:24:50.254Z,2.10
2022-09-13T10:27:23.209Z,2.20
2022-09-13T10:29:56.805Z,1.85
2022-09-13T10:32:23.795Z,2.13
2022-09-13T10:34:53.393Z,1.90
2022-09-13T10:37:28.973Z,2.30
2022-09-13T10:39:58.519Z,2.05
2022-09-13T10:42:28.205Z,2.20
2022-09-13T10:45:08.422Z,2.03
2022-09-13T10:47:44.908Z,2.10
2022-09-13T10:50:24.983Z,2.00
2022-09-13T10:52:56.531Z,1.92
2022-09-13T10:55:25.291Z,2.10
2022-09-13T10:58:07.666Z,2.67
2022-09-13T11:00:52.247Z,2.40
2022-09-13T11:03:37.033Z,2.17
2022-09-13T11:06:06.692Z,2.35
2022-09-13T11:08:47.510Z,2.08
2022-09-13T11:11:26.489Z,2.13
2022-09-13T11:14:02.323Z,2.20
2022-09-13T11:16:48.216Z,2.10
2022-09-13T11:19:27.790Z,1.98
2022-09-13T11:22:25.396Z,1.80
2022-09-13T11:25:24.364Z,1.73
2022-09-13T11:28:27.718Z,1.70
2022-09-13T11:31:12.798Z,2.10
2022-09-13T11:33:42.347Z,1.83
2022-09-13T11:36:36.122Z,2.10
2022-09-13T11:39:13.603Z,2.25
2022-09-13T11:42:01.405Z,2.00
2022-09-13T11:44:49.390Z,2.13
2022-09-13T11:47:19.080Z,1.85
2022-09-13T11:50:03.978Z,2.13
2022-09-13T11:52:36.568Z,1.75
2022-09-13T11:55:28.911Z,2.13
2022-09-13T11:58:01.334Z,1.90
2022-09-13T12:00:43.991Z,2.13
2022-09-13T12:03:10.595Z,1.92
2022-09-13T12:05:57.589Z,1.88
2022-09-13T12:08:42.664Z,1.98
2022-09-13T12:11:16.244Z,2.03
2022-09-13T12:13:56.325Z,2.22
2022-09-13T12:16:35.919Z,1.88
2022-09-13T12:19:16.626Z,2.03
2022-09-13T12:21:45.853Z,2.40
2022-09-13T12:24:38.328Z,2.13
2022-09-13T12:27:21.947Z,2.33
2022-09-13T12:30:16.544Z,2.10
2022-09-13T12:32:45.291Z,2.08
2022-09-13T12:35:38.603Z,1.88
2022-09-13T12:38:43.811Z,2.33
2022-09-13T12:41:32.560Z,2.33
2022-09-13T12:44:31.683Z,2.30
2022-09-13T12:47:18.796Z,2.00
2022-09-13T12:49:53.173Z,1.92
2022-09-13T12:52:41.815Z,2.07
2022-09-13T12:55:42.668Z,1.90
2022-09-13T12:58:25.430Z,2.30
2022-09-13T13:01:00.315Z,2.40
2022-09-13T13:03:33.971Z,2.10
2022-09-13T13:06:15.423Z,1.90
2022-09-13T13:08:53.238Z,2.05
2022-09-13T13:11:27.069Z,2.28
2022-09-13T13:14:09.534Z,1.88
2022-09-13T13:16:48.281Z,2.10
2022-09-13T13:19:32.552Z,2.00
2022-09-13T13:22:36.672Z,2.10
2022-09-13T13:25:39.075Z,1.60
2022-09-13T13:28:43.270Z,1.88
2022-09-13T13:31:24.708Z,1.83
2022-09-13T13:33:56.051Z,2.10
2022-09-13T13:36:44.015Z,2.28
2022-09-13T13:39:34.284Z,2.30
2022-09-13T13:42:27.815Z,1.70
2022-09-13T13:44:54.691Z,1.70
2022-09-13T13:47:21.282Z,1.93
2022-09-13T13:49:54.617Z,2.55
2022-09-13T13:52:23.661Z,3.38
2022-09-13T13:55:23.727Z,2.30
2022-09-13T13:58:04.889Z,2.22
2022-09-13T14:00:36.894Z,2.17
2022-09-13T14:03:10.294Z,1.98
2022-09-13T14:06:06.033Z,2.10
2022-09-13T14:08:57.505Z,2.05
2022-09-13T14:11:47.836Z,1.80
2022-09-13T14:14:51.951Z,1.90
2022-09-13T14:17:33.764Z,2.30
2022-09-13T14:20:14.656Z,2.15
2022-09-13T14:22:43.816Z,1.88
2022-09-13T14:25:19.388Z,1.95
2022-09-13T14:27:49.281Z,1.70
2022-09-13T14:30:32.572Z,1.90
2022-09-13T14:33:01.741Z,2.10
2022-09-13T14:35:31.671Z,2.22
2022-09-13T14:38:33.554Z,2.03
2022-09-13T14:41:15.347Z,2.30
2022-09-13T14:43:43.764Z,2.10
2022-09-13T14:46:26.173Z,1.73
2022-09-13T14:49:02.844Z,2.33
2022-09-13T14:52:13.193Z,2.20
2022-09-13T14:54:44.705Z,1.90
2022-09-13T14:57:25.346Z,2.53
2022-09-13T14:59:56.109Z,2.20
2022-09-13T15:02:37.565Z,1.95
2022-09-13T15:05:09.157Z,2.20
2022-09-13T15:07:38.320Z,2.10
2022-09-13T15:10:12.499Z,1.92
2022-09-13T15:12:53.763Z,2.03
2022-09-13T15:15:20.358Z,1.80
2022-09-13T15:18:03.827Z,1.80
2022-09-13T15:20:45.791Z,1.63
2022-09-13T15:23:18.285Z,1.73
2022-09-13T15:25:52.431Z,2.15
2022-09-13T15:28:28.437Z,2.05
2022-09-13T15:30:57.029Z,1.60
2022-09-13T15:33:29.998Z,1.97
2022-09-13T15:36:19.189Z,1.60
2022-09-13T15:39:02.198Z,1.80
2022-09-13T15:41:41.105Z,2.30
2022-09-13T15:44:09.755Z,1.60
2022-09-13T15:46:47.991Z,2.07
2022-09-13T15:49:19.857Z,1.58
2022-09-13T15:51:55.681Z,2.05
2022-09-13T15:54:26.383Z,1.92
2022-09-13T15:56:53.421Z,2.10
2022-09-13T15:59:21.632Z,2.00
2022-09-13T16:01:50.806Z,1.80
2022-09-13T16:04:21.147Z,1.65
2022-09-13T16:06:48.059Z,2.00
2022-09-13T16:09:21.650Z,1.80
2022-09-13T16:11:52.061Z,1.60
2022-09-13T16:14:21.969Z,1.75
2022-09-13T16:16:49.190Z,1.92
2022-09-13T16:19:17.887Z,1.90
2022-09-13T16:21:47.425Z,1.67
2022-09-13T16:24:14.553Z,2.00
2022-09-13T16:26:42.247Z,1.60
2022-09-13T16:29:12.671Z,1.70
2022-09-13T16:31:42.538Z,1.70
2022-09-13T16:34:09.434Z,2.13
2022-09-13T16:36:38.228Z,1.80
2022-09-13T16:39:05.133Z,2.20
2022-09-13T16:41:35.082Z,1.75
2022-09-13T16:44:05.150Z,2.00
2022-09-13T16:46:32.099Z,1.80
2022-09-13T16:49:01.529Z,1.90
2022-09-13T16:51:30.302Z,1.50
2022-09-13T16:53:59.482Z,2.10
2022-09-13T16:56:28.272Z,1.48
2022-09-13T16:58:57.033Z,1.50
2022-09-13T17:01:27.022Z,1.40
2022-09-13T17:03:55.154Z,1.67
2022-09-13T17:06:23.611Z,1.50
2022-09-13T17:08:56.702Z,1.30
2022-09-13T17:11:29.631Z,1.92
2022-09-13T17:13:59.897Z,1.97
2022-09-13T17:16:32.066Z,1.50
2022-09-13T17:19:04.896Z,1.58
2022-09-13T17:21:33.757Z,1.50
2022-09-13T17:24:01.176Z,1.75
2022-09-13T17:26:27.803Z,1.40
2022-09-13T17:28:54.307Z,1.50
2022-09-13T17:31:23.544Z,1.40
2022-09-13T17:33:53.290Z,1.30
2022-09-13T17:36:20.787Z,1.38
2022-09-13T17:38:47.372Z,1.50
2022-09-13T17:41:20.979Z,1.25
2022-09-13T17:43:49.974Z,1.60
2022-09-13T17:46:22.425Z,1.40
2022-09-13T17:48:53.634Z,1.10
2022-09-13T17:51:22.829Z,1.37
2022-09-13T17:53:55.040Z,1.48
2022-09-13T17:56:25.713Z,1.48
2022-09-13T17:58:52.441Z,1.55
2022-09-13T18:01:19.018Z,1.20
2022-09-13T18:03:48.641Z,1.30
2022-09-13T18:06:15.541Z,1.38
2022-09-13T18:08:43.342Z,1.50
2022-09-13T18:11:22.329Z,1.52
2022-09-13T18:13:51.973Z,1.67
2022-09-13T18:16:27.536Z,1.50
2022-09-13T18:18:54.265Z,1.20
2022-09-13T18:21:25.652Z,1.45
2022-09-13T18:23:58.446Z,1.55
2022-09-13T18:26:26.748Z,1.50
2022-09-13T18:29:09.815Z,1.20
2022-09-13T18:31:39.332Z,1.27
2022-09-13T18:34:09.716Z,1.30
2022-09-13T18:36:39.617Z,1.35
2022-09-13T18:39:15.142Z,1.30
2022-09-13T18:41:41.784Z,1.43
2022-09-13T18:44:10.704Z,1.70
2022-09-13T18:46:37.830Z,1.50
2022-09-13T18:49:05.541Z,1.60
2022-09-13T18:51:36.051Z,1.50
2022-09-13T18:54:03.630Z,1.30
2022-09-13T18:56:30.517Z,1.83
2022-09-13T18:59:05.217Z,1.80
2022-09-13T19:01:34.409Z,1.50
2022-09-13T19:04:11.638Z,1.60
2022-09-13T19:06:41.991Z,1.40
2022-09-13T19:09:09.300Z,1.50
2022-09-13T19:11:48.927Z,1.27
2022-09-13T19:14:29.568Z,1.50
2022-09-13T19:17:00.528Z,1.50
2022-09-13T19:19:27.080Z,1.90
2022-09-13T19:21:53.651Z,1.75
2022-09-13T19:24:22.949Z,1.60
2022-09-13T19:26:51.657Z,1.50
2022-09-13T19:29:22.849Z,1.80
2022-09-13T19:31:53.282Z,2.00
2022-09-13T19:34:21.987Z,1.55
2022-09-13T19:36:57.433Z,2.05
2022-09-13T19:39:31.811Z,1.85
2022-09-13T19:42:00.438Z,1.70
2022-09-13T19:44:29.705Z,1.87
2022-09-13T19:47:23.759Z,1.73
2022-09-13T19:49:45.499Z,1.95
2022-09-13T19:52:12.074Z,1.77
2022-09-13T19:54:38.980Z,1.63
2022-09-13T19:57:07.680Z,2.00
2022-09-13T19:59:34.393Z,1.60
2022-09-13T20:02:00.939Z,1.90
2022-09-13T20:04:30.433Z,2.00
2022-09-13T20:06:59.528Z,2.22
2022-09-13T20:09:26.234Z,1.90
2022-09-13T20:11:55.231Z,1.80
2022-09-13T20:14:22.751Z,1.70
2022-09-13T20:16:49.380Z,1.55
2022-09-13T20:19:40.143Z,1.95
2022-09-13T20:22:08.515Z,1.57
2022-09-13T20:24:35.636Z,1.83
2022-09-13T20:27:02.228Z,1.70
2022-09-13T20:29:28.813Z,1.60
2022-09-13T20:31:59.490Z,1.73
2022-09-13T20:34:28.436Z,1.70
2022-09-13T20:36:54.981Z,1.73
2022-09-13T20:39:21.533Z,1.50
2022-09-13T20:41:50.562Z,2.00
2022-09-13T20:44:19.570Z,1.95
2022-09-13T20:46:46.185Z,1.80
2022-09-13T20:49:12.821Z,1.63
2022-09-13T20:51:39.570Z,1.83
2022-09-13T20:54:08.887Z,1.92
2022-09-13T20:56:37.948Z,1.88
2022-09-13T20:59:04.986Z,1.93
2022-09-13T21:01:35.195Z,2.00
2022-09-13T21:04:02.920Z,1.80
2022-09-13T21:06:36.264Z,2.00
2022-09-13T21:09:02.819Z,2.10
2022-09-13T21:11:33.714Z,2.00
2022-09-13T21:14:08.547Z,2.10
2022-09-13T21:16:42.926Z,2.05
2022-09-13T21:19:12.252Z,2.40
2022-09-13T21:21:42.439Z,2.17
2022-09-13T21:24:12.553Z,2.30
2022-09-13T21:26:42.355Z,2.60
2022-09-13T21:29:10.071Z,2.55
2022-09-13T21:31:40.151Z,2.60
2022-09-13T21:34:21.109Z,2.30
2022-09-13T21:36:50.971Z,2.27
2022-09-13T21:39:18.729Z,2.13
2022-09-13T21:41:45.450Z,2.53
2022-09-13T21:44:12.049Z,2.10
2022-09-13T21:46:39.921Z,2.20
2022-09-13T21:49:09.119Z,2.40
2022-09-13T21:51:47.667Z,2.00
2022-09-13T21:54:19.112Z,2.42
2022-09-13T21:56:53.514Z,2.38
2022-09-13T21:59:21.717Z,2.25
2022-09-13T22:01:53.285Z,2.10
2022-09-13T22:04:24.221Z,2.00
2022-09-13T22:06:53.434Z,2.50
2022-09-13T22:09:22.456Z,2.90
2022-09-13T22:11:49.697Z,2.35
2022-09-13T22:14:21.969Z,2.40
2022-09-13T22:16:49.370Z,2.15
2022-09-13T22:19:25.651Z,2.25
2022-09-13T22:22:00.222Z,2.30
2022-09-13T22:24:29.483Z,2.58
2022-09-13T22:26:59.120Z,2.40
2022-09-13T22:29:26.388Z,2.50
2022-09-13T22:31:53.378Z,2.45
2022-09-13T22:34:25.272Z,2.42
2022-09-13T22:36:55.773Z,2.35
2022-09-13T22:39:24.692Z,2.57
2022-09-13T22:41:51.791Z,2.53
2022-09-13T22:44:23.224Z,2.40
2022-09-13T22:46:52.510Z,2.30
2022-09-13T22:49:22.095Z,2.28
2022-09-13T22:51:48.787Z,2.73
2022-09-13T22:54:18.873Z,2.60
2022-09-13T22:56:48.721Z,2.78
2022-09-13T22:59:18.462Z,2.75
2022-09-13T23:01:45.378Z,2.65
2022-09-13T23:04:12.446Z,2.50
2022-09-13T23:06:39.671Z,2.70
2022-09-13T23:09:10.789Z,2.83
2022-09-13T23:11:41.813Z,2.65
2022-09-13T23:14:13.693Z,2.22
2022-09-13T23:16:45.578Z,2.40
2022-09-13T23:19:15.173Z,2.45
2022-09-13T23:21:42.880Z,2.20
2022-09-13T23:24:17.764Z,2.17
2022-09-13T23:26:45.017Z,1.90
2022-09-13T23:29:20.223Z,2.30
2022-09-13T23:31:48.025Z,2.33
2022-09-13T23:34:15.422Z,2.08
2022-09-13T23:36:46.202Z,1.98
2022-09-13T23:39:17.968Z,2.67
2022-09-13T23:41:46.448Z,3.00
2022-09-13T23:44:13.566Z,2.50
2022-09-13T23:46:42.865Z,2.70
2022-09-13T23:49:09.526Z,2.88
2022-09-13T23:51:36.664Z,3.00
2022-09-13T23:54:04.144Z,2.30
2022-09-13T23:56:32.472Z,2.47
2022-09-13T23:59:01.085Z,2.55
